Hovedside
METAR-TAF:

METAR-TAF

Lufthavner :

Sandnessjøen, Norge

Sandnessjøen lufthavn

breddegrad: 65-58N, lengdegrad: 012-28E, høyde over havet: 1 m

Gjeldene værobservasjon

Denne rapporten ble laget for 22 minutter siden, klokken 14:20 UTC
Vind 15 kt fra Øst med vindkast opp mot 29 kt, skiftende mellom Nord-nordøst og Sør-sørøst
Temperatur 0°C
Luftfuktighet 55%
Trykk 1004 hPa
Sikt 10 km eller mer
Få skyer i en høyde av 3000 ft
Spredte skyer i en høyde av 15000 ft

METAR: ENST 221420Z 10015G29KT 030V150 9999 FEW030 SCT150 M00/M08 Q1004 RMK WIND 300FT 11033G48KT TURB WRNG - SEE IPPC

Tid: 15:42 (14:42 UTC)


TAF: fraværende

Værobservasjoner og værvarsel for over 4000 flyplasser (METAR- og TAF-rapporter).

Tilgjengelige stasjoner er representert av de røde og gule prikkene på kartet.

Hold musepekeren over prikken for å se navnet på stasjonen.

Klikk så for å se værobservasjoner og -varsler.

For å forandre kartet kan du klikke på den grønne knappen med svart kryss for å zoome inn, på den grønne knappen med strek for å zoome ut, eller på de grønne pilene for å se tilstøtende kart.


METAR-TAF: